Time;durP1;ratioP1;P1;durP2;ratioP2;P2;SDS_P1;SDS_P2;PMS_P1;PMS_P2;Temp;Humidity;BMP_temperature;BMP_pressure;BME280_temperature;BME280_humidity;BME280_pressure;Samples;Min_cycle;Max_cycle;Signal;HPM_P1;HPM_P2
2021/12/10 00:01:40;;;;;;;10.98;1.60;;;;;;;;;;4949445;29;20195;-89
2021/12/10 00:04:08;;;;;;;1.15;0.98;;;;;;;;;;4948613;29;20240;-89
2021/12/10 00:06:37;;;;;;;6.50;1.17;;;;;;;;;;4947451;28;20209;-89
2021/12/10 00:09:29;;;;;;;6.38;1.42;;;;;;;;;;4965784;28;20199;-87
2021/12/10 00:11:58;;;;;;;0.70;0.70;;;;;;;;;;4929129;29;20197;-88
2021/12/10 00:14:27;;;;;;;1.88;0.88;;;;;;;;;;4948966;29;20192;-88
2021/12/10 00:16:54;;;;;;;8.02;1.30;;;;;;;;;;4947796;29;20184;-88
2021/12/10 00:21:50;;;;;;;1.00;0.70;;;;;;;;;;4966772;28;20188;-89
2021/12/10 00:24:16;;;;;;;3.55;1.20;;;;;;;;;;4946991;29;20235;-90
2021/12/10 00:26:43;;;;;;;1.75;1.65;;;;;;;;;;4949537;29;20550;-85
2021/12/10 00:29:10;;;;;;;4.45;0.85;;;;;;;;;;4949880;29;20188;-93
2021/12/10 00:31:51;;;;;;;0.80;0.70;;;;;;;;;;4947063;29;20195;-87
2021/12/10 00:34:23;;;;;;;1.15;0.93;;;;;;;;;;4945817;29;20216;-87
2021/12/10 00:36:53;;;;;;;0.60;0.60;;;;;;;;;;4946985;29;20189;-89
2021/12/10 00:39:22;;;;;;;1.08;0.93;;;;;;;;;;4945131;29;20223;-90
2021/12/10 00:41:49;;;;;;;1.33;0.75;;;;;;;;;;4947366;29;20220;-86
2021/12/10 00:44:15;;;;;;;2.33;0.90;;;;;;;;;;4949014;29;20196;-86
2021/12/10 00:46:41;;;;;;;9.65;1.35;;;;;;;;;;4962832;29;20180;-87
2021/12/10 00:49:08;;;;;;;15.30;1.48;;;;;;;;;;4947922;29;20188;-88
2021/12/10 00:51:34;;;;;;;0.65;0.60;;;;;;;;;;4945873;29;20184;-87
2021/12/10 00:54:01;;;;;;;4.18;0.80;;;;;;;;;;4946317;29;20185;-88
2021/12/10 00:56:28;;;;;;;1.80;0.70;;;;;;;;;;4965274;28;20169;-86
2021/12/10 00:58:54;;;;;;;8.77;1.23;;;;;;;;;;4949134;29;20228;-89
2021/12/10 01:01:23;;;;;;;14.25;2.50;;;;;;;;;;4944914;29;20196;-84
2021/12/10 01:03:52;;;;;;;3.92;1.10;;;;;;;;;;4944227;28;20180;-82
2021/12/10 01:06:19;;;;;;;2.08;0.75;;;;;;;;;;4945121;29;20527;-87
2021/12/10 01:08:46;;;;;;;10.93;1.52;;;;;;;;;;4947975;29;20196;-85
2021/12/10 01:11:23;;;;;;;0.82;0.70;;;;;;;;;;4949517;29;20188;-85
2021/12/10 01:13:53;;;;;;;1.17;0.80;;;;;;;;;;4948665;29;20218;-89
2021/12/10 01:27:01;;;;;;;0.50;0.50;;;;;;;;;;4964658;29;20207;-89
2021/12/10 01:29:34;;;;;;;4.55;1.52;;;;;;;;;;4947555;28;20195;-92
2021/12/10 01:32:01;;;;;;;0.52;0.50;;;;;;;;;;4947558;29;20207;-89
2021/12/10 01:34:27;;;;;;;2.35;0.70;;;;;;;;;;4945237;29;20203;-85
2021/12/10 01:36:53;;;;;;;0.98;0.60;;;;;;;;;;4965208;29;20192;-88
2021/12/10 01:39:22;;;;;;;0.75;0.68;;;;;;;;;;4945107;29;20196;-89
2021/12/10 01:41:55;;;;;;;0.50;0.47;;;;;;;;;;4947644;29;20188;-85
2021/12/10 01:44:28;;;;;;;1.45;0.75;;;;;;;;;;4947736;29;20224;-85
2021/12/10 01:46:57;;;;;;;1.13;0.60;;;;;;;;;;4942311;29;20184;-86
2021/12/10 01:49:23;;;;;;;1.95;0.60;;;;;;;;;;4944668;29;20181;-91
2021/12/10 01:51:49;;;;;;;0.73;0.55;;;;;;;;;;4947527;29;20430;-84
2021/12/10 01:54:36;;;;;;;0.40;0.40;;;;;;;;;;4951960;29;20638;-85
2021/12/10 01:57:02;;;;;;;1.17;0.60;;;;;;;;;;4950992;28;20204;-87
2021/12/10 01:59:30;;;;;;;0.82;0.40;;;;;;;;;;4956752;28;20193;-86
2021/12/10 02:01:59;;;;;;;1.45;0.63;;;;;;;;;;4948193;29;20208;-86
2021/12/10 02:04:26;;;;;;;0.75;0.60;;;;;;;;;;4944889;29;20300;-88
2021/12/10 02:06:53;;;;;;;0.60;0.50;;;;;;;;;;4944618;29;20211;-87
2021/12/10 02:09:19;;;;;;;0.52;0.52;;;;;;;;;;4944685;29;20184;-90
2021/12/10 02:11:45;;;;;;;0.60;0.50;;;;;;;;;;4947401;29;20223;-85
2021/12/10 02:14:12;;;;;;;0.40;0.40;;;;;;;;;;4965411;29;20225;-88
2021/12/10 02:16:38;;;;;;;0.60;0.55;;;;;;;;;;4945798;29;20199;-90
2021/12/10 02:19:05;;;;;;;0.60;0.50;;;;;;;;;;4948201;29;20193;-90
2021/12/10 02:21:34;;;;;;;0.50;0.40;;;;;;;;;;4948687;29;20188;-88
2021/12/10 02:24:00;;;;;;;2.05;0.50;;;;;;;;;;4948329;29;20196;-89
2021/12/10 02:26:28;;;;;;;0.40;0.40;;;;;;;;;;4950151;28;20220;-86
2021/12/10 02:28:55;;;;;;;1.15;0.50;;;;;;;;;;4949431;29;20200;-88
2021/12/10 02:31:21;;;;;;;1.50;0.50;;;;;;;;;;4948286;29;20192;-87
2021/12/10 02:33:47;;;;;;;0.50;0.40;;;;;;;;;;4948230;29;20212;-89
2021/12/10 02:36:13;;;;;;;1.75;0.50;;;;;;;;;;4949609;29;20425;-90
2021/12/10 02:38:44;;;;;;;0.50;0.40;;;;;;;;;;4949903;29;20193;-88
2021/12/10 02:41:10;;;;;;;0.60;0.40;;;;;;;;;;4966766;29;20176;-88
2021/12/10 02:43:37;;;;;;;0.90;0.50;;;;;;;;;;4950218;29;20263;-91
2021/12/10 02:46:04;;;;;;;0.50;0.50;;;;;;;;;;4947589;29;20208;-90
2021/12/10 02:48:30;;;;;;;0.40;0.40;;;;;;;;;;4946607;29;20188;-85
2021/12/10 02:50:56;;;;;;;0.55;0.55;;;;;;;;;;4947377;29;20280;-93
2021/12/10 02:53:27;;;;;;;0.50;0.50;;;;;;;;;;4951252;28;20169;-86
2021/12/10 02:55:53;;;;;;;3.05;0.68;;;;;;;;;;4950456;29;20578;-90
2021/12/10 02:58:20;;;;;;;0.50;0.40;;;;;;;;;;4947021;29;20224;-88
2021/12/10 03:01:12;;;;;;;0.82;0.60;;;;;;;;;;4948330;29;20220;-87
2021/12/10 03:03:39;;;;;;;0.50;0.40;;;;;;;;;;4889452;29;20262;-86
2021/12/10 03:06:11;;;;;;;0.55;0.50;;;;;;;;;;4890168;29;20223;-90
2021/12/10 03:08:39;;;;;;;2.15;0.60;;;;;;;;;;4889437;29;20227;-87
2021/12/10 03:11:05;;;;;;;1.52;0.70;;;;;;;;;;4874915;29;20198;-93
2021/12/10 03:13:31;;;;;;;1.40;0.70;;;;;;;;;;4871973;29;20243;-88
2021/12/10 03:15:58;;;;;;;0.80;0.60;;;;;;;;;;4888079;29;20719;-87
2021/12/10 03:18:24;;;;;;;0.85;0.68;;;;;;;;;;4870666;29;20202;-86
2021/12/10 03:20:50;;;;;;;1.77;0.90;;;;;;;;;;4889644;29;20219;-87
2021/12/10 03:23:16;;;;;;;2.65;0.80;;;;;;;;;;4889805;29;20191;-86
2021/12/10 03:25:42;;;;;;;0.82;0.70;;;;;;;;;;4888796;29;20218;-84
2021/12/10 03:28:09;;;;;;;0.80;0.80;;;;;;;;;;4887580;29;20214;-91
2021/12/10 03:30:39;;;;;;;1.13;0.98;;;;;;;;;;4888465;29;20202;-84
2021/12/10 03:33:06;;;;;;;1.50;1.02;;;;;;;;;;4869083;29;20199;-87
2021/12/10 03:35:34;;;;;;;2.15;1.10;;;;;;;;;;4888210;29;20190;-85
2021/12/10 03:38:01;;;;;;;3.63;1.15;;;;;;;;;;4889824;29;20222;-85
2021/12/10 03:40:27;;;;;;;2.78;1.27;;;;;;;;;;4929389;29;20600;-86
2021/12/10 03:42:58;;;;;;;4.32;1.05;;;;;;;;;;4947169;29;20208;-87
2021/12/10 03:45:26;;;;;;;3.75;1.58;;;;;;;;;;4946601;29;20200;-85
2021/12/10 03:47:52;;;;;;;9.38;2.17;;;;;;;;;;4948447;29;20191;-86
2021/12/10 03:50:28;;;;;;;5.03;1.75;;;;;;;;;;4961491;28;20196;-85
2021/12/10 03:52:54;;;;;;;4.35;1.50;;;;;;;;;;4950652;29;20180;-80
2021/12/10 03:55:22;;;;;;;2.08;1.40;;;;;;;;;;4950186;29;20184;-86
2021/12/10 03:57:48;;;;;;;5.10;1.42;;;;;;;;;;4946529;29;20185;-85
2021/12/10 04:00:15;;;;;;;3.28;1.45;;;;;;;;;;4946887;29;20200;-83
2021/12/10 04:02:41;;;;;;;4.93;1.50;;;;;;;;;;4948602;29;20256;-84
2021/12/10 04:05:07;;;;;;;2.50;1.80;;;;;;;;;;4950024;29;20258;-83
2021/12/10 04:07:33;;;;;;;5.32;1.58;;;;;;;;;;4945872;29;20601;-81
2021/12/10 04:09:59;;;;;;;7.47;1.77;;;;;;;;;;4946384;29;20216;-82
2021/12/10 04:12:25;;;;;;;3.95;1.75;;;;;;;;;;4946362;29;20188;-82
2021/12/10 04:14:52;;;;;;;12.07;2.05;;;;;;;;;;4947615;29;20188;-84
2021/12/10 04:17:20;;;;;;;6.82;1.92;;;;;;;;;;4960363;29;20184;-82
2021/12/10 04:19:47;;;;;;;6.78;2.55;;;;;;;;;;4953193;29;20638;-81
2021/12/10 04:22:14;;;;;;;5.47;2.00;;;;;;;;;;4965420;28;20191;-82
2021/12/10 04:24:41;;;;;;;7.22;2.22;;;;;;;;;;4945854;29;20753;-81
2021/12/10 04:27:09;;;;;;;10.10;2.20;;;;;;;;;;4946152;29;20267;-80
2021/12/10 04:29:35;;;;;;;4.07;2.15;;;;;;;;;;4965177;28;20189;-80
2021/12/10 04:32:02;;;;;;;12.30;2.38;;;;;;;;;;4948867;29;20192;-81
2021/12/10 04:34:28;;;;;;;9.55;2.60;;;;;;;;;;4945946;29;20680;-78
2021/12/10 04:36:55;;;;;;;12.25;3.03;;;;;;;;;;4945287;29;20188;-81
2021/12/10 04:39:22;;;;;;;12.88;2.58;;;;;;;;;;4956094;28;20195;-80
2021/12/10 04:41:48;;;;;;;11.52;2.70;;;;;;;;;;4965566;29;20186;-78
2021/12/10 04:44:14;;;;;;;10.88;2.88;;;;;;;;;;4949146;28;20221;-78
2021/12/10 04:46:41;;;;;;;9.10;2.40;;;;;;;;;;4948000;29;20191;-79
2021/12/10 04:49:12;;;;;;;9.20;3.20;;;;;;;;;;4945493;29;20215;-79
2021/12/10 04:51:47;;;;;;;4.97;2.10;;;;;;;;;;4964424;29;20278;-80
2021/12/10 04:54:13;;;;;;;11.70;2.65;;;;;;;;;;4945965;29;20184;-78
2021/12/10 04:56:40;;;;;;;11.35;3.10;;;;;;;;;;4948149;29;20313;-80
2021/12/10 04:59:08;;;;;;;12.48;3.15;;;;;;;;;;4948818;29;20659;-78
2021/12/10 05:01:34;;;;;;;6.22;2.03;;;;;;;;;;4964521;29;20180;-76
2021/12/10 05:04:01;;;;;;;7.85;2.15;;;;;;;;;;4942868;29;20229;-80
2021/12/10 05:06:27;;;;;;;18.90;3.72;;;;;;;;;;4941676;29;20245;-79
2021/12/10 05:08:53;;;;;;;10.50;2.90;;;;;;;;;;4945876;29;20192;-78
2021/12/10 05:11:19;;;;;;;9.00;2.40;;;;;;;;;;4944717;29;20180;-77
2021/12/10 05:13:46;;;;;;;7.07;3.03;;;;;;;;;;4944875;29;20216;-80
2021/12/10 05:16:13;;;;;;;11.05;2.70;;;;;;;;;;4945402;29;20260;-80
2021/12/10 05:18:43;;;;;;;9.68;2.15;;;;;;;;;;4941604;29;20200;-84
2021/12/10 05:21:10;;;;;;;9.27;2.83;;;;;;;;;;4945942;29;20181;-77
2021/12/10 05:23:36;;;;;;;11.45;3.17;;;;;;;;;;4945744;29;20196;-79
2021/12/10 05:26:03;;;;;;;12.32;2.67;;;;;;;;;;4946332;29;20193;-82
2021/12/10 05:28:29;;;;;;;11.80;3.47;;;;;;;;;;4943840;29;20217;-78
2021/12/10 05:30:56;;;;;;;9.07;3.28;;;;;;;;;;4944341;29;20208;-81
2021/12/10 05:33:26;;;;;;;10.13;2.33;;;;;;;;;;4941256;29;20192;-81
2021/12/10 05:35:52;;;;;;;6.47;2.33;;;;;;;;;;4943366;29;20193;-85
2021/12/10 05:38:20;;;;;;;18.42;3.90;;;;;;;;;;4945003;29;20193;-83
2021/12/10 05:40:48;;;;;;;9.68;2.63;;;;;;;;;;4941957;29;20178;-85
2021/12/10 05:43:14;;;;;;;11.88;3.13;;;;;;;;;;4940765;29;20189;-82
2021/12/10 05:45:40;;;;;;;11.77;3.03;;;;;;;;;;4940776;29;20256;-86
2021/12/10 05:48:06;;;;;;;10.27;2.80;;;;;;;;;;4941242;29;20197;-80
2021/12/10 05:50:33;;;;;;;9.93;2.40;;;;;;;;;;4943276;29;20201;-82
2021/12/10 05:52:59;;;;;;;7.50;2.45;;;;;;;;;;4944891;29;20180;-84
2021/12/10 05:55:26;;;;;;;10.57;2.50;;;;;;;;;;4941477;29;20201;-85
2021/12/10 05:57:52;;;;;;;9.88;2.42;;;;;;;;;;4941701;29;20243;-81
2021/12/10 06:00:24;;;;;;;10.50;2.88;;;;;;;;;;4945462;29;20189;-83
2021/12/10 06:02:50;;;;;;;12.07;3.13;;;;;;;;;;4944748;29;20204;-83
2021/12/10 06:05:16;;;;;;;7.85;2.47;;;;;;;;;;4943894;29;20228;-82
2021/12/10 06:07:42;;;;;;;9.27;2.28;;;;;;;;;;4944995;29;20235;-80
2021/12/10 06:10:10;;;;;;;6.03;2.25;;;;;;;;;;4941101;29;20192;-83
2021/12/10 06:12:36;;;;;;;7.50;1.98;;;;;;;;;;4945040;29;20189;-82
2021/12/10 06:15:03;;;;;;;8.80;2.88;;;;;;;;;;4940890;29;20227;-83
2021/12/10 06:17:29;;;;;;;10.45;2.70;;;;;;;;;;4944016;29;20177;-82
2021/12/10 06:19:56;;;;;;;10.10;2.58;;;;;;;;;;4945704;29;20195;-79
2021/12/10 06:22:22;;;;;;;6.40;3.05;;;;;;;;;;4941163;29;20200;-84
2021/12/10 06:24:48;;;;;;;10.68;2.30;;;;;;;;;;4941374;29;20212;-82
2021/12/10 06:27:14;;;;;;;7.85;2.10;;;;;;;;;;4941356;29;20592;-80
2021/12/10 06:29:42;;;;;;;6.72;2.05;;;;;;;;;;4943762;29;20189;-81
2021/12/10 06:32:09;;;;;;;5.25;1.70;;;;;;;;;;4945851;29;20177;-81
2021/12/10 06:34:35;;;;;;;6.82;1.58;;;;;;;;;;4940754;29;20260;-82
2021/12/10 06:37:01;;;;;;;3.88;1.27;;;;;;;;;;4945361;29;20189;-83
2021/12/10 06:39:27;;;;;;;3.42;1.70;;;;;;;;;;4944873;29;20197;-79
2021/12/10 06:41:54;;;;;;;3.50;1.98;;;;;;;;;;4945387;29;20283;-83
2021/12/10 06:44:21;;;;;;;3.25;1.35;;;;;;;;;;4942862;29;20232;-81
2021/12/10 06:46:47;;;;;;;6.05;1.10;;;;;;;;;;4943847;29;20189;-78
2021/12/10 06:49:13;;;;;;;1.88;1.30;;;;;;;;;;4940576;29;20181;-81
2021/12/10 06:51:39;;;;;;;3.42;1.40;;;;;;;;;;4941460;29;20189;-80
2021/12/10 06:54:06;;;;;;;3.15;1.30;;;;;;;;;;4940782;29;20208;-78
2021/12/10 06:56:34;;;;;;;2.47;1.15;;;;;;;;;;4944881;29;20189;-81
2021/12/10 06:59:00;;;;;;;3.17;1.05;;;;;;;;;;4946325;29;20177;-80
2021/12/10 07:01:31;;;;;;;5.20;1.10;;;;;;;;;;4944678;29;20189;-83
2021/12/10 07:03:58;;;;;;;3.58;1.00;;;;;;;;;;4943334;29;20221;-82
2021/12/10 07:06:25;;;;;;;4.13;1.30;;;;;;;;;;4948443;29;20204;-85
2021/12/10 07:08:51;;;;;;;2.35;1.70;;;;;;;;;;4946269;29;20189;-84
2021/12/10 07:11:19;;;;;;;4.18;1.25;;;;;;;;;;4948451;29;20177;-83
2021/12/10 07:13:48;;;;;;;5.88;1.30;;;;;;;;;;4946821;29;20268;-83
2021/12/10 07:16:15;;;;;;;6.82;1.40;;;;;;;;;;4946118;29;20189;-83
2021/12/10 07:18:42;;;;;;;10.70;2.47;;;;;;;;;;4945539;29;20200;-83
2021/12/10 07:21:08;;;;;;;7.68;2.20;;;;;;;;;;4948139;29;20189;-83
2021/12/10 07:23:36;;;;;;;6.53;1.70;;;;;;;;;;4946710;29;20208;-86
2021/12/10 07:26:02;;;;;;;6.45;1.50;;;;;;;;;;4949544;29;20256;-87
2021/12/10 07:28:28;;;;;;;5.07;1.15;;;;;;;;;;4947071;29;20193;-82
2021/12/10 07:31:16;;;;;;;4.90;1.23;;;;;;;;;;4944089;29;20192;-83
2021/12/10 07:33:41;;;;;;;5.43;1.45;;;;;;;;;;4947752;29;20196;-87
2021/12/10 07:36:08;;;;;;;3.90;1.38;;;;;;;;;;4948001;29;20193;-87
2021/12/10 07:38:34;;;;;;;2.55;1.25;;;;;;;;;;4947217;29;20189;-83
2021/12/10 07:41:00;;;;;;;3.08;1.23;;;;;;;;;;4947530;29;20177;-87
2021/12/10 07:43:27;;;;;;;5.50;1.27;;;;;;;;;;4942533;29;20201;-86
2021/12/10 07:45:53;;;;;;;7.53;1.63;;;;;;;;;;4943822;29;20701;-88
2021/12/10 07:48:20;;;;;;;2.25;1.23;;;;;;;;;;4940214;29;20269;-87
2021/12/10 07:50:56;;;;;;;6.00;2.30;;;;;;;;;;4945961;29;20201;-82
2021/12/10 07:53:22;;;;;;;5.13;1.50;;;;;;;;;;4944094;29;20180;-82
2021/12/10 07:55:48;;;;;;;3.20;1.95;;;;;;;;;;4944473;29;20200;-87
2021/12/10 07:58:14;;;;;;;4.13;1.40;;;;;;;;;;4944799;29;20217;-85
2021/12/10 08:00:41;;;;;;;2.95;1.20;;;;;;;;;;4943957;29;20196;-81
2021/12/10 08:03:07;;;;;;;9.23;1.52;;;;;;;;;;4943951;29;20189;-83
2021/12/10 08:05:33;;;;;;;5.13;1.08;;;;;;;;;;4963065;29;20244;-88
2021/12/10 08:08:00;;;;;;;1.50;1.20;;;;;;;;;;4949197;29;20181;-81
2021/12/10 08:10:27;;;;;;;4.88;1.00;;;;;;;;;;4965199;28;20183;-85
2021/12/10 08:12:53;;;;;;;6.07;1.45;;;;;;;;;;4965623;28;20271;-85
2021/12/10 08:15:19;;;;;;;2.75;0.90;;;;;;;;;;4963186;28;20192;-85
2021/12/10 08:17:46;;;;;;;4.25;1.02;;;;;;;;;;4961708;28;20211;-86
2021/12/10 08:20:13;;;;;;;4.63;1.33;;;;;;;;;;4952014;28;20188;-84
2021/12/10 08:22:39;;;;;;;2.15;0.90;;;;;;;;;;4949361;29;20184;-82
2021/12/10 08:25:05;;;;;;;2.58;0.85;;;;;;;;;;4965959;28;20211;-83
2021/12/10 08:27:32;;;;;;;3.03;1.55;;;;;;;;;;4946729;29;20208;-87
2021/12/10 08:30:03;;;;;;;1.10;0.70;;;;;;;;;;4961126;28;20553;-81
2021/12/10 08:32:32;;;;;;;10.00;1.23;;;;;;;;;;4958248;28;20212;-82
2021/12/10 08:34:58;;;;;;;3.10;1.10;;;;;;;;;;4966473;29;20606;-86
2021/12/10 08:37:24;;;;;;;4.93;1.48;;;;;;;;;;4947550;29;20203;-84
2021/12/10 08:39:50;;;;;;;1.00;0.88;;;;;;;;;;4954578;29;20200;-82
2021/12/10 08:42:17;;;;;;;9.68;1.35;;;;;;;;;;4965823;28;20176;-81
2021/12/10 08:44:43;;;;;;;2.85;0.90;;;;;;;;;;4958722;28;20211;-84
2021/12/10 08:47:14;;;;;;;4.57;1.15;;;;;;;;;;4933810;29;20189;-82
2021/12/10 08:49:40;;;;;;;6.32;2.28;;;;;;;;;;4945999;29;20212;-82
2021/12/10 08:52:08;;;;;;;3.90;1.77;;;;;;;;;;4944026;29;20694;-81
2021/12/10 08:54:35;;;;;;;1.50;0.90;;;;;;;;;;4963857;28;20207;-84
2021/12/10 08:57:01;;;;;;;3.38;0.90;;;;;;;;;;4947634;29;20501;-87
2021/12/10 08:59:28;;;;;;;4.93;1.42;;;;;;;;;;4947697;28;20194;-82
2021/12/10 09:01:56;;;;;;;4.78;1.45;;;;;;;;;;4935776;29;20252;-83
2021/12/10 09:04:23;;;;;;;3.17;1.55;;;;;;;;;;4944242;29;20272;-80
2021/12/10 09:06:51;;;;;;;3.42;1.70;;;;;;;;;;4948748;29;20191;-83
2021/12/10 09:09:17;;;;;;;3.65;1.40;;;;;;;;;;4964838;29;20185;-84
2021/12/10 09:11:45;;;;;;;7.82;2.88;;;;;;;;;;4952174;29;20643;-84
2021/12/10 09:14:11;;;;;;;5.85;1.30;;;;;;;;;;4965060;29;20187;-83
2021/12/10 09:16:38;;;;;;;8.88;1.92;;;;;;;;;;4943826;29;20184;-84
2021/12/10 09:19:06;;;;;;;9.00;2.45;;;;;;;;;;4964788;28;20188;-83
2021/12/10 09:21:33;;;;;;;10.68;2.95;;;;;;;;;;4965246;29;20183;-86
2021/12/10 09:24:04;;;;;;;4.20;1.83;;;;;;;;;;4951673;29;20189;-85
2021/12/10 09:26:31;;;;;;;3.00;1.25;;;;;;;;;;4963291;28;20240;-82
2021/12/10 09:28:58;;;;;;;6.05;1.83;;;;;;;;;;4947182;29;20189;-83
2021/12/10 09:31:24;;;;;;;9.75;2.30;;;;;;;;;;4954469;28;20191;-86
2021/12/10 09:33:55;;;;;;;6.15;2.50;;;;;;;;;;4942827;29;20193;-85
2021/12/10 09:36:21;;;;;;;5.50;2.13;;;;;;;;;;4951644;29;20239;-87
2021/12/10 09:38:47;;;;;;;7.63;2.05;;;;;;;;;;4963996;28;20188;-83
2021/12/10 09:41:14;;;;;;;6.95;1.70;;;;;;;;;;4963677;29;20200;-82
2021/12/10 09:43:40;;;;;;;6.28;2.42;;;;;;;;;;4962974;28;20256;-83
2021/12/10 09:46:07;;;;;;;5.10;1.80;;;;;;;;;;4945775;29;20204;-81
2021/12/10 09:48:34;;;;;;;9.00;3.50;;;;;;;;;;4946402;29;20196;-79
2021/12/10 09:51:20;;;;;;;9.52;2.80;;;;;;;;;;4964192;28;20188;-83
2021/12/10 09:53:49;;;;;;;5.75;2.05;;;;;;;;;;4975392;28;20195;-80
2021/12/10 09:56:17;;;;;;;3.45;1.80;;;;;;;;;;4964479;29;20186;-81
2021/12/10 09:58:43;;;;;;;3.22;1.88;;;;;;;;;;4951197;29;20227;-84
2021/12/10 10:01:11;;;;;;;11.27;2.72;;;;;;;;;;4946371;29;20188;-83
2021/12/10 10:03:41;;;;;;;9.00;2.03;;;;;;;;;;4953643;28;20649;-81
2021/12/10 10:06:07;;;;;;;5.90;2.10;;;;;;;;;;4949005;29;20212;-80
2021/12/10 10:08:34;;;;;;;7.43;1.65;;;;;;;;;;4975928;28;20207;-79
2021/12/10 10:11:04;;;;;;;8.63;2.30;;;;;;;;;;4948041;29;20589;-78
2021/12/10 10:13:32;;;;;;;6.78;2.95;;;;;;;;;;4945246;29;20185;-79
2021/12/10 10:15:59;;;;;;;9.40;2.58;;;;;;;;;;4943362;29;20219;-79
2021/12/10 10:18:26;;;;;;;7.72;1.67;;;;;;;;;;4963709;28;20398;-79
2021/12/10 10:20:57;;;;;;;5.60;1.83;;;;;;;;;;4949313;29;20204;-78
2021/12/10 10:23:24;;;;;;;16.08;2.60;;;;;;;;;;4948395;28;20545;-80
2021/12/10 10:25:52;;;;;;;8.40;1.83;;;;;;;;;;4948685;29;20208;-78
2021/12/10 10:28:19;;;;;;;5.22;2.20;;;;;;;;;;4946382;29;20285;-77
2021/12/10 10:30:54;;;;;;;8.60;2.42;;;;;;;;;;4964187;29;20622;-80
2021/12/10 10:33:20;;;;;;;11.35;3.08;;;;;;;;;;4963538;29;20275;-80
2021/12/10 10:35:49;;;;;;;5.65;2.28;;;;;;;;;;4945001;29;20638;-78
2021/12/10 10:38:16;;;;;;;5.75;1.73;;;;;;;;;;4954952;28;20179;-79
2021/12/10 10:40:45;;;;;;;6.07;2.05;;;;;;;;;;4967284;28;20184;-78
2021/12/10 10:43:11;;;;;;;8.35;2.10;;;;;;;;;;4967489;28;20207;-81
2021/12/10 10:45:42;;;;;;;4.85;1.63;;;;;;;;;;4966338;29;20200;-83
2021/12/10 10:48:09;;;;;;;6.95;2.38;;;;;;;;;;4947496;29;20216;-80
2021/12/10 10:50:45;;;;;;;4.45;1.48;;;;;;;;;;4968026;28;20196;-78
2021/12/10 10:53:13;;;;;;;3.15;1.65;;;;;;;;;;4967268;29;20239;-79
2021/12/10 10:55:49;;;;;;;10.23;2.58;;;;;;;;;;4948889;29;20192;-79
2021/12/10 10:58:16;;;;;;;5.13;1.98;;;;;;;;;;4947694;29;20259;-80
2021/12/10 11:00:50;;;;;;;4.25;1.95;;;;;;;;;;4948819;29;20193;-79
2021/12/10 11:03:22;;;;;;;8.35;2.10;;;;;;;;;;4947166;29;20184;-79
2021/12/10 11:05:56;;;;;;;5.55;1.85;;;;;;;;;;4968202;28;20216;-78
2021/12/10 11:08:27;;;;;;;6.65;1.90;;;;;;;;;;4967021;29;20195;-80
2021/12/10 11:10:58;;;;;;;5.70;1.90;;;;;;;;;;4972058;28;20177;-82
2021/12/10 11:13:25;;;;;;;6.13;1.52;;;;;;;;;;4946973;29;20180;-80
2021/12/10 11:16:00;;;;;;;5.72;1.63;;;;;;;;;;4965708;28;20180;-77
2021/12/10 11:18:27;;;;;;;12.63;2.00;;;;;;;;;;4967022;28;20203;-79
2021/12/10 11:20:53;;;;;;;4.60;2.25;;;;;;;;;;4949144;29;20243;-81
2021/12/10 11:23:21;;;;;;;10.32;2.42;;;;;;;;;;4948723;28;20597;-80
2021/12/10 11:25:49;;;;;;;7.88;1.77;;;;;;;;;;4948828;28;20208;-80
2021/12/10 11:28:15;;;;;;;7.53;2.15;;;;;;;;;;4965744;28;20187;-78
2021/12/10 11:30:43;;;;;;;5.73;2.10;;;;;;;;;;4966126;29;20600;-78
2021/12/10 11:33:10;;;;;;;8.57;2.38;;;;;;;;;;4966466;28;20444;-77
2021/12/10 11:35:37;;;;;;;6.35;2.30;;;;;;;;;;4951069;28;20204;-78
2021/12/10 11:38:17;;;;;;;12.48;2.50;;;;;;;;;;4950308;29;20191;-78
2021/12/10 11:40:58;;;;;;;5.72;2.30;;;;;;;;;;4964009;28;20177;-79
2021/12/10 11:46:05;;;;;;;9.88;2.58;;;;;;;;;;4965252;28;20734;-78
2021/12/10 11:48:33;;;;;;;9.20;3.53;;;;;;;;;;4965681;28;20244;-80
2021/12/10 11:51:02;;;;;;;7.18;2.15;;;;;;;;;;4946208;29;20189;-82
2021/12/10 11:53:34;;;;;;;6.22;1.45;;;;;;;;;;4947137;28;20181;-81
2021/12/10 11:56:20;;;;;;;10.13;2.03;;;;;;;;;;4948648;29;20442;-78
2021/12/10 11:59:05;;;;;;;4.97;1.70;;;;;;;;;;4956009;28;20267;-80
2021/12/10 12:01:32;;;;;;;4.80;1.63;;;;;;;;;;4942544;29;20207;-80
2021/12/10 12:04:14;;;;;;;6.45;1.80;;;;;;;;;;4948714;29;20228;-80
2021/12/10 12:06:40;;;;;;;3.47;1.30;;;;;;;;;;4957704;28;20184;-81
2021/12/10 12:09:06;;;;;;;3.55;1.60;;;;;;;;;;4945637;29;20193;-79
2021/12/10 12:11:32;;;;;;;6.55;1.75;;;;;;;;;;4958966;28;20224;-81
2021/12/10 12:13:58;;;;;;;6.05;1.45;;;;;;;;;;4953272;29;20173;-81
2021/12/10 12:16:27;;;;;;;6.18;1.63;;;;;;;;;;4947032;29;20188;-80
2021/12/10 12:18:54;;;;;;;5.85;1.70;;;;;;;;;;4965474;28;20193;-80
2021/12/10 12:27:12;;;;;;;3.60;1.67;;;;;;;;;;4967372;28;20199;-81
2021/12/10 12:30:02;;;;;;;7.70;1.70;;;;;;;;;;4948861;29;20925;-80
2021/12/10 12:32:48;;;;;;;3.88;1.27;;;;;;;;;;4965464;28;20293;-82
2021/12/10 12:35:17;;;;;;;7.90;2.00;;;;;;;;;;4966118;29;20183;-77
2021/12/10 12:37:43;;;;;;;3.97;1.30;;;;;;;;;;4965911;29;20201;-78
2021/12/10 12:40:09;;;;;;;5.10;1.10;;;;;;;;;;4964718;29;20700;-79
2021/12/10 12:42:38;;;;;;;2.95;1.45;;;;;;;;;;4944356;29;20204;-78
2021/12/10 12:45:06;;;;;;;6.10;1.42;;;;;;;;;;4964906;28;20247;-81
2021/12/10 12:47:37;;;;;;;6.07;1.70;;;;;;;;;;4950590;28;20211;-83
2021/12/10 12:50:03;;;;;;;4.53;1.35;;;;;;;;;;4952312;29;20589;-78
2021/12/10 12:52:40;;;;;;;5.93;1.87;;;;;;;;;;4949635;28;20199;-78
2021/12/10 12:55:06;;;;;;;2.22;1.10;;;;;;;;;;4966541;28;20467;-80
2021/12/10 12:57:46;;;;;;;5.87;1.67;;;;;;;;;;4946631;28;20598;-80
2021/12/10 13:00:25;;;;;;;9.73;2.00;;;;;;;;;;4965503;28;20472;-80
2021/12/10 13:02:52;;;;;;;6.18;1.80;;;;;;;;;;4963847;28;20220;-78
2021/12/10 13:05:19;;;;;;;4.85;1.60;;;;;;;;;;4970590;28;20228;-78
2021/12/10 13:07:45;;;;;;;5.45;1.67;;;;;;;;;;4947295;29;20183;-81
2021/12/10 13:10:18;;;;;;;7.88;2.10;;;;;;;;;;4948881;29;20189;-78
2021/12/10 13:12:57;;;;;;;4.20;1.42;;;;;;;;;;4948099;29;20254;-78
2021/12/10 13:15:26;;;;;;;5.20;1.92;;;;;;;;;;4964438;28;20172;-78
2021/12/10 13:17:56;;;;;;;7.10;1.65;;;;;;;;;;4947403;29;20196;-81
2021/12/10 13:20:25;;;;;;;7.10;2.55;;;;;;;;;;4947413;29;20240;-80
2021/12/10 13:22:52;;;;;;;7.38;1.77;;;;;;;;;;4942167;29;20188;-79
2021/12/10 13:25:20;;;;;;;10.38;2.55;;;;;;;;;;4962042;29;20208;-81
2021/12/10 13:27:46;;;;;;;4.47;1.95;;;;;;;;;;4942294;29;20188;-80
2021/12/10 13:30:18;;;;;;;6.47;1.60;;;;;;;;;;4963223;28;20194;-79
2021/12/10 13:32:46;;;;;;;2.88;1.35;;;;;;;;;;4964390;28;20184;-79
2021/12/10 13:35:15;;;;;;;4.70;1.70;;;;;;;;;;4955314;28;20680;-83
2021/12/10 13:37:41;;;;;;;10.18;1.35;;;;;;;;;;4950900;29;20172;-83
2021/12/10 13:40:07;;;;;;;9.70;1.80;;;;;;;;;;4950558;28;20262;-78
2021/12/10 13:42:33;;;;;;;4.25;2.28;;;;;;;;;;4966416;28;20195;-81
2021/12/10 13:44:59;;;;;;;3.90;1.70;;;;;;;;;;4941218;29;20212;-78
2021/12/10 13:47:34;;;;;;;5.38;1.98;;;;;;;;;;4945669;29;20184;-78
2021/12/10 13:50:06;;;;;;;4.13;1.38;;;;;;;;;;4963945;29;20174;-77
2021/12/10 13:52:34;;;;;;;5.18;1.90;;;;;;;;;;4945027;29;20207;-79
2021/12/10 13:55:00;;;;;;;3.45;1.40;;;;;;;;;;4944504;29;20195;-77
2021/12/10 13:57:26;;;;;;;3.28;1.30;;;;;;;;;;4944309;29;20192;-78
2021/12/10 13:59:57;;;;;;;4.90;1.65;;;;;;;;;;4964955;28;20211;-77
2021/12/10 14:02:32;;;;;;;3.22;1.50;;;;;;;;;;4963889;28;20176;-77
2021/12/10 14:04:59;;;;;;;4.30;1.50;;;;;;;;;;4963975;29;20224;-78
2021/12/10 14:07:25;;;;;;;9.00;2.10;;;;;;;;;;4964310;28;20272;-77
2021/12/10 14:09:53;;;;;;;3.80;1.90;;;;;;;;;;4964250;29;20247;-78
2021/12/10 14:12:30;;;;;;;7.10;1.95;;;;;;;;;;4947816;29;20186;-79
2021/12/10 14:15:03;;;;;;;5.22;1.65;;;;;;;;;;4948677;29;20188;-77
2021/12/10 14:17:30;;;;;;;5.63;1.17;;;;;;;;;;4967028;28;20188;-77
2021/12/10 14:19:57;;;;;;;3.42;1.38;;;;;;;;;;4951947;29;20184;-78
2021/12/10 14:22:48;;;;;;;4.18;1.70;;;;;;;;;;4948660;29;20278;-77
2021/12/10 14:25:19;;;;;;;3.72;1.60;;;;;;;;;;4968342;29;20208;-77
2021/12/10 14:27:54;;;;;;;4.78;1.85;;;;;;;;;;4967213;29;20563;-76
2021/12/10 14:30:30;;;;;;;5.15;1.75;;;;;;;;;;4968304;29;20197;-75
2021/12/10 14:33:01;;;;;;;4.28;2.00;;;;;;;;;;4940207;29;20181;-76
2021/12/10 14:35:27;;;;;;;8.13;2.20;;;;;;;;;;4950670;28;20180;-77
2021/12/10 14:38:01;;;;;;;7.95;1.65;;;;;;;;;;4968379;29;20191;-82
2021/12/10 14:40:30;;;;;;;4.32;1.42;;;;;;;;;;4947812;29;20262;-76
2021/12/10 14:43:08;;;;;;;1.95;1.25;;;;;;;;;;4949595;29;20247;-79
2021/12/10 14:45:34;;;;;;;3.78;1.05;;;;;;;;;;4946914;29;20780;-79
2021/12/10 14:48:10;;;;;;;5.00;1.40;;;;;;;;;;4947361;29;20193;-81
2021/12/10 14:50:36;;;;;;;3.45;1.52;;;;;;;;;;4950624;28;20206;-81
2021/12/10 14:53:23;;;;;;;1.92;1.60;;;;;;;;;;4951571;29;20208;-81
2021/12/10 14:55:49;;;;;;;5.55;2.00;;;;;;;;;;4968151;29;20273;-83
2021/12/10 14:58:20;;;;;;;3.63;2.20;;;;;;;;;;4947793;29;20204;-80
2021/12/10 15:00:52;;;;;;;7.88;2.80;;;;;;;;;;4967204;28;20189;-78
2021/12/10 15:03:24;;;;;;;4.35;1.40;;;;;;;;;;4947375;29;20219;-83
2021/12/10 15:05:53;;;;;;;3.70;1.85;;;;;;;;;;4952833;29;20318;-83
2021/12/10 15:08:39;;;;;;;3.47;1.60;;;;;;;;;;4950792;28;20192;-81
2021/12/10 15:11:07;;;;;;;4.88;1.60;;;;;;;;;;4967738;29;20200;-79